sensor_id;sensor_type;location;lat;lon;timestamp;P1;durP1;ratioP1;P2;durP2;ratioP2
81884;SDS011;71340;55.154;30.266;2023-08-01T00:01:45;7.37;;;5.07;;
81884;SDS011;71340;55.154;30.266;2023-08-01T00:04:10;9.32;;;5.20;;
81884;SDS011;71340;55.154;30.266;2023-08-01T00:06:35;5.60;;;4.73;;
81884;SDS011;71340;55.154;30.266;2023-08-01T00:09:01;8.33;;;5.60;;
81884;SDS011;71340;55.154;30.266;2023-08-01T00:11:26;10.00;;;4.50;;
81884;SDS011;71340;55.154;30.266;2023-08-01T00:13:52;6.73;;;4.53;;
81884;SDS011;71340;55.154;30.266;2023-08-01T00:16:17;7.77;;;5.37;;
81884;SDS011;71340;55.154;30.266;2023-08-01T00:18:42;8.57;;;4.70;;
81884;SDS011;71340;55.154;30.266;2023-08-01T00:21:08;8.65;;;5.10;;
81884;SDS011;71340;55.154;30.266;2023-08-01T00:23:36;9.82;;;4.30;;
81884;SDS011;71340;55.154;30.266;2023-08-01T00:26:01;6.10;;;4.40;;
81884;SDS011;71340;55.154;30.266;2023-08-01T00:28:27;8.07;;;4.50;;
81884;SDS011;71340;55.154;30.266;2023-08-01T00:31:03;7.40;;;5.43;;
81884;SDS011;71340;55.154;30.266;2023-08-01T00:33:30;8.73;;;5.82;;
81884;SDS011;71340;55.154;30.266;2023-08-01T00:35:55;5.67;;;4.40;;
81884;SDS011;71340;55.154;30.266;2023-08-01T00:38:21;9.30;;;4.70;;
81884;SDS011;71340;55.154;30.266;2023-08-01T00:40:46;8.35;;;4.72;;
81884;SDS011;71340;55.154;30.266;2023-08-01T00:43:12;7.60;;;5.45;;
81884;SDS011;71340;55.154;30.266;2023-08-01T00:45:37;7.27;;;4.80;;
81884;SDS011;71340;55.154;30.266;2023-08-01T00:48:03;7.20;;;5.07;;
81884;SDS011;71340;55.154;30.266;2023-08-01T00:50:28;6.75;;;4.65;;
81884;SDS011;71340;55.154;30.266;2023-08-01T00:52:54;8.63;;;4.63;;
81884;SDS011;71340;55.154;30.266;2023-08-01T00:55:20;11.75;;;4.78;;
81884;SDS011;71340;55.154;30.266;2023-08-01T00:57:47;8.53;;;4.60;;
81884;SDS011;71340;55.154;30.266;2023-08-01T01:00:12;9.02;;;5.10;;
81884;SDS011;71340;55.154;30.266;2023-08-01T01:02:38;6.65;;;4.88;;
81884;SDS011;71340;55.154;30.266;2023-08-01T01:05:04;6.70;;;4.90;;
81884;SDS011;71340;55.154;30.266;2023-08-01T01:07:30;7.97;;;4.97;;
81884;SDS011;71340;55.154;30.266;2023-08-01T01:09:57;8.05;;;5.60;;
81884;SDS011;71340;55.154;30.266;2023-08-01T01:12:23;7.70;;;5.68;;
81884;SDS011;71340;55.154;30.266;2023-08-01T01:14:48;8.73;;;5.30;;
81884;SDS011;71340;55.154;30.266;2023-08-01T01:17:13;7.50;;;4.87;;
81884;SDS011;71340;55.154;30.266;2023-08-01T01:19:39;9.37;;;5.30;;
81884;SDS011;71340;55.154;30.266;2023-08-01T01:22:04;7.57;;;4.90;;
81884;SDS011;71340;55.154;30.266;2023-08-01T01:24:31;6.40;;;5.22;;
81884;SDS011;71340;55.154;30.266;2023-08-01T01:26:58;7.05;;;4.90;;
81884;SDS011;71340;55.154;30.266;2023-08-01T01:29:25;8.57;;;5.13;;
81884;SDS011;71340;55.154;30.266;2023-08-01T01:31:51;7.82;;;4.63;;
81884;SDS011;71340;55.154;30.266;2023-08-01T01:34:18;6.07;;;4.70;;
81884;SDS011;71340;55.154;30.266;2023-08-01T01:36:43;7.80;;;4.93;;
81884;SDS011;71340;55.154;30.266;2023-08-01T01:39:09;6.83;;;4.70;;
81884;SDS011;71340;55.154;30.266;2023-08-01T01:41:34;7.87;;;4.87;;
81884;SDS011;71340;55.154;30.266;2023-08-01T01:43:59;6.55;;;5.00;;
81884;SDS011;71340;55.154;30.266;2023-08-01T01:46:25;12.33;;;4.53;;
81884;SDS011;71340;55.154;30.266;2023-08-01T01:48:50;8.57;;;4.63;;
81884;SDS011;71340;55.154;30.266;2023-08-01T01:51:15;6.63;;;4.90;;
81884;SDS011;71340;55.154;30.266;2023-08-01T01:53:41;9.17;;;5.10;;
81884;SDS011;71340;55.154;30.266;2023-08-01T01:56:07;8.85;;;4.90;;
81884;SDS011;71340;55.154;30.266;2023-08-01T01:58:32;7.30;;;4.10;;
81884;SDS011;71340;55.154;30.266;2023-08-01T02:00:58;6.13;;;5.20;;
81884;SDS011;71340;55.154;30.266;2023-08-01T02:03:23;5.32;;;4.63;;
81884;SDS011;71340;55.154;30.266;2023-08-01T02:05:48;6.70;;;5.47;;
81884;SDS011;71340;55.154;30.266;2023-08-01T02:08:14;9.90;;;5.20;;
81884;SDS011;71340;55.154;30.266;2023-08-01T02:10:39;7.80;;;5.10;;
81884;SDS011;71340;55.154;30.266;2023-08-01T02:13:04;6.70;;;5.27;;
81884;SDS011;71340;55.154;30.266;2023-08-01T02:15:30;6.93;;;5.50;;
81884;SDS011;71340;55.154;30.266;2023-08-01T02:17:56;9.17;;;4.90;;
81884;SDS011;71340;55.154;30.266;2023-08-01T02:20:22;6.20;;;5.18;;
81884;SDS011;71340;55.154;30.266;2023-08-01T02:22:47;8.13;;;5.70;;
81884;SDS011;71340;55.154;30.266;2023-08-01T02:25:12;6.43;;;5.33;;
81884;SDS011;71340;55.154;30.266;2023-08-01T02:27:38;6.63;;;4.73;;
81884;SDS011;71340;55.154;30.266;2023-08-01T02:30:03;6.33;;;4.70;;
81884;SDS011;71340;55.154;30.266;2023-08-01T02:32:30;6.70;;;5.40;;
81884;SDS011;71340;55.154;30.266;2023-08-01T02:34:55;8.60;;;5.20;;
81884;SDS011;71340;55.154;30.266;2023-08-01T02:37:21;7.50;;;4.97;;
81884;SDS011;71340;55.154;30.266;2023-08-01T02:39:46;9.77;;;5.40;;
81884;SDS011;71340;55.154;30.266;2023-08-01T02:42:11;6.90;;;5.57;;
81884;SDS011;71340;55.154;30.266;2023-08-01T02:44:37;7.23;;;5.23;;
81884;SDS011;71340;55.154;30.266;2023-08-01T02:47:02;11.77;;;5.43;;
81884;SDS011;71340;55.154;30.266;2023-08-01T02:49:28;9.05;;;5.80;;
81884;SDS011;71340;55.154;30.266;2023-08-01T02:51:53;8.90;;;5.40;;
81884;SDS011;71340;55.154;30.266;2023-08-01T02:54:18;8.23;;;5.20;;
81884;SDS011;71340;55.154;30.266;2023-08-01T02:56:44;7.73;;;5.33;;
81884;SDS011;71340;55.154;30.266;2023-08-01T02:59:09;7.30;;;5.70;;
81884;SDS011;71340;55.154;30.266;2023-08-01T03:01:35;6.50;;;5.17;;
81884;SDS011;71340;55.154;30.266;2023-08-01T03:04:04;7.68;;;5.03;;
81884;SDS011;71340;55.154;30.266;2023-08-01T03:06:31;7.13;;;5.38;;
81884;SDS011;71340;55.154;30.266;2023-08-01T03:08:57;9.57;;;5.22;;
81884;SDS011;71340;55.154;30.266;2023-08-01T03:11:23;7.45;;;5.40;;
81884;SDS011;71340;55.154;30.266;2023-08-01T03:13:48;6.17;;;5.30;;
81884;SDS011;71340;55.154;30.266;2023-08-01T03:16:13;9.50;;;5.60;;
81884;SDS011;71340;55.154;30.266;2023-08-01T03:18:39;9.10;;;5.90;;
81884;SDS011;71340;55.154;30.266;2023-08-01T03:21:04;6.83;;;5.67;;
81884;SDS011;71340;55.154;30.266;2023-08-01T03:23:30;8.77;;;6.33;;
81884;SDS011;71340;55.154;30.266;2023-08-01T03:25:55;7.65;;;5.45;;
81884;SDS011;71340;55.154;30.266;2023-08-01T03:28:20;7.23;;;5.20;;
81884;SDS011;71340;55.154;30.266;2023-08-01T03:30:46;6.07;;;5.10;;
81884;SDS011;71340;55.154;30.266;2023-08-01T03:33:14;10.00;;;5.55;;
81884;SDS011;71340;55.154;30.266;2023-08-01T03:35:40;9.40;;;5.33;;
81884;SDS011;71340;55.154;30.266;2023-08-01T03:38:05;8.73;;;5.75;;
81884;SDS011;71340;55.154;30.266;2023-08-01T03:40:31;17.10;;;5.97;;
81884;SDS011;71340;55.154;30.266;2023-08-01T03:42:56;8.10;;;5.93;;
81884;SDS011;71340;55.154;30.266;2023-08-01T03:45:21;7.50;;;5.30;;
81884;SDS011;71340;55.154;30.266;2023-08-01T03:47:47;7.40;;;5.50;;
81884;SDS011;71340;55.154;30.266;2023-08-01T03:50:12;6.93;;;5.30;;
81884;SDS011;71340;55.154;30.266;2023-08-01T03:52:38;8.55;;;5.55;;
81884;SDS011;71340;55.154;30.266;2023-08-01T03:55:04;7.97;;;6.30;;
81884;SDS011;71340;55.154;30.266;2023-08-01T03:57:30;8.80;;;6.30;;
81884;SDS011;71340;55.154;30.266;2023-08-01T03:59:58;6.82;;;5.80;;
81884;SDS011;71340;55.154;30.266;2023-08-01T04:02:24;9.82;;;6.13;;
81884;SDS011;71340;55.154;30.266;2023-08-01T04:04:49;7.50;;;6.03;;
81884;SDS011;71340;55.154;30.266;2023-08-01T04:07:14;7.53;;;5.73;;
81884;SDS011;71340;55.154;30.266;2023-08-01T04:09:40;8.97;;;5.63;;
81884;SDS011;71340;55.154;30.266;2023-08-01T04:12:05;7.20;;;6.20;;
81884;SDS011;71340;55.154;30.266;2023-08-01T04:14:31;12.60;;;5.97;;
81884;SDS011;71340;55.154;30.266;2023-08-01T04:16:57;7.22;;;5.88;;
81884;SDS011;71340;55.154;30.266;2023-08-01T04:19:22;8.43;;;6.23;;
81884;SDS011;71340;55.154;30.266;2023-08-01T04:21:48;10.17;;;6.30;;
81884;SDS011;71340;55.154;30.266;2023-08-01T04:24:14;8.00;;;5.43;;
81884;SDS011;71340;55.154;30.266;2023-08-01T04:26:39;8.73;;;6.07;;
81884;SDS011;71340;55.154;30.266;2023-08-01T04:29:04;10.97;;;5.73;;
81884;SDS011;71340;55.154;30.266;2023-08-01T04:31:30;7.33;;;5.70;;
81884;SDS011;71340;55.154;30.266;2023-08-01T04:33:55;8.37;;;5.17;;
81884;SDS011;71340;55.154;30.266;2023-08-01T04:36:20;6.27;;;5.33;;
81884;SDS011;71340;55.154;30.266;2023-08-01T04:38:46;8.02;;;5.43;;
81884;SDS011;71340;55.154;30.266;2023-08-01T04:41:12;7.00;;;5.90;;
81884;SDS011;71340;55.154;30.266;2023-08-01T04:43:37;6.97;;;5.50;;
81884;SDS011;71340;55.154;30.266;2023-08-01T04:46:02;6.27;;;5.53;;
81884;SDS011;71340;55.154;30.266;2023-08-01T04:48:28;6.43;;;5.40;;
81884;SDS011;71340;55.154;30.266;2023-08-01T04:50:53;7.57;;;5.68;;
81884;SDS011;71340;55.154;30.266;2023-08-01T04:53:18;8.73;;;5.90;;
81884;SDS011;71340;55.154;30.266;2023-08-01T04:55:44;7.90;;;6.00;;
81884;SDS011;71340;55.154;30.266;2023-08-01T04:58:09;6.93;;;5.50;;
81884;SDS011;71340;55.154;30.266;2023-08-01T05:00:34;11.63;;;6.03;;
81884;SDS011;71340;55.154;30.266;2023-08-01T05:03:00;7.80;;;5.77;;
81884;SDS011;71340;55.154;30.266;2023-08-01T05:05:25;7.87;;;5.73;;
81884;SDS011;71340;55.154;30.266;2023-08-01T05:07:51;8.63;;;6.55;;
81884;SDS011;71340;55.154;30.266;2023-08-01T05:10:16;7.10;;;5.90;;
81884;SDS011;71340;55.154;30.266;2023-08-01T05:12:42;8.40;;;5.77;;
81884;SDS011;71340;55.154;30.266;2023-08-01T05:15:07;12.87;;;6.40;;
81884;SDS011;71340;55.154;30.266;2023-08-01T05:17:33;7.57;;;6.13;;
81884;SDS011;71340;55.154;30.266;2023-08-01T05:19:58;8.87;;;5.73;;
81884;SDS011;71340;55.154;30.266;2023-08-01T05:22:23;10.87;;;5.70;;
81884;SDS011;71340;55.154;30.266;2023-08-01T05:24:49;8.03;;;6.03;;
81884;SDS011;71340;55.154;30.266;2023-08-01T05:27:14;7.37;;;5.20;;
81884;SDS011;71340;55.154;30.266;2023-08-01T05:29:39;7.30;;;5.27;;
81884;SDS011;71340;55.154;30.266;2023-08-01T05:32:05;6.10;;;4.70;;
81884;SDS011;71340;55.154;30.266;2023-08-01T05:34:30;5.77;;;5.17;;
81884;SDS011;71340;55.154;30.266;2023-08-01T05:36:56;5.77;;;4.60;;
81884;SDS011;71340;55.154;30.266;2023-08-01T05:39:21;4.80;;;4.30;;
81884;SDS011;71340;55.154;30.266;2023-08-01T05:41:47;6.97;;;4.63;;
81884;SDS011;71340;55.154;30.266;2023-08-01T05:44:12;7.60;;;4.15;;
81884;SDS011;71340;55.154;30.266;2023-08-01T05:46:37;6.73;;;4.13;;
81884;SDS011;71340;55.154;30.266;2023-08-01T05:49:03;10.57;;;4.50;;
81884;SDS011;71340;55.154;30.266;2023-08-01T05:51:28;6.07;;;4.03;;
81884;SDS011;71340;55.154;30.266;2023-08-01T05:53:53;6.07;;;4.37;;
81884;SDS011;71340;55.154;30.266;2023-08-01T05:56:19;7.47;;;4.50;;
81884;SDS011;71340;55.154;30.266;2023-08-01T05:58:44;5.80;;;4.25;;
81884;SDS011;71340;55.154;30.266;2023-08-01T06:01:13;6.17;;;4.13;;
81884;SDS011;71340;55.154;30.266;2023-08-01T06:03:39;6.70;;;4.33;;
81884;SDS011;71340;55.154;30.266;2023-08-01T06:06:04;7.18;;;4.38;;
81884;SDS011;71340;55.154;30.266;2023-08-01T06:08:30;5.03;;;4.40;;
81884;SDS011;71340;55.154;30.266;2023-08-01T06:10:55;10.20;;;4.50;;
81884;SDS011;71340;55.154;30.266;2023-08-01T06:13:21;5.20;;;4.32;;
81884;SDS011;71340;55.154;30.266;2023-08-01T06:15:46;7.30;;;4.63;;
81884;SDS011;71340;55.154;30.266;2023-08-01T06:18:12;8.87;;;4.77;;
81884;SDS011;71340;55.154;30.266;2023-08-01T06:20:37;8.63;;;4.47;;
81884;SDS011;71340;55.154;30.266;2023-08-01T06:23:03;6.13;;;4.60;;
81884;SDS011;71340;55.154;30.266;2023-08-01T06:25:28;7.10;;;4.70;;
81884;SDS011;71340;55.154;30.266;2023-08-01T06:27:54;6.67;;;4.83;;
81884;SDS011;71340;55.154;30.266;2023-08-01T06:30:19;5.27;;;4.67;;
81884;SDS011;71340;55.154;30.266;2023-08-01T06:32:44;5.90;;;5.13;;
81884;SDS011;71340;55.154;30.266;2023-08-01T06:35:10;6.47;;;5.00;;
81884;SDS011;71340;55.154;30.266;2023-08-01T06:37:35;5.63;;;4.60;;
81884;SDS011;71340;55.154;30.266;2023-08-01T06:40:01;8.47;;;4.80;;
81884;SDS011;71340;55.154;30.266;2023-08-01T06:42:26;9.77;;;4.93;;
81884;SDS011;71340;55.154;30.266;2023-08-01T06:44:52;6.17;;;5.00;;
81884;SDS011;71340;55.154;30.266;2023-08-01T06:47:17;6.60;;;5.10;;
81884;SDS011;71340;55.154;30.266;2023-08-01T06:49:43;6.93;;;4.70;;
81884;SDS011;71340;55.154;30.266;2023-08-01T06:52:08;6.85;;;4.60;;
81884;SDS011;71340;55.154;30.266;2023-08-01T06:54:34;5.57;;;4.67;;
81884;SDS011;71340;55.154;30.266;2023-08-01T06:56:59;6.23;;;4.73;;
81884;SDS011;71340;55.154;30.266;2023-08-01T06:59:25;6.50;;;4.45;;
81884;SDS011;71340;55.154;30.266;2023-08-01T07:01:51;6.63;;;4.57;;
81884;SDS011;71340;55.154;30.266;2023-08-01T07:04:16;5.70;;;4.60;;
81884;SDS011;71340;55.154;30.266;2023-08-01T07:06:42;6.57;;;4.75;;
81884;SDS011;71340;55.154;30.266;2023-08-01T07:09:07;4.90;;;4.10;;
81884;SDS011;71340;55.154;30.266;2023-08-01T07:11:33;5.10;;;4.20;;
81884;SDS011;71340;55.154;30.266;2023-08-01T07:13:58;6.33;;;3.73;;
81884;SDS011;71340;55.154;30.266;2023-08-01T07:16:24;4.78;;;4.15;;
81884;SDS011;71340;55.154;30.266;2023-08-01T07:18:49;7.03;;;4.57;;
81884;SDS011;71340;55.154;30.266;2023-08-01T07:21:16;8.00;;;4.28;;
81884;SDS011;71340;55.154;30.266;2023-08-01T07:23:42;5.82;;;4.88;;
81884;SDS011;71340;55.154;30.266;2023-08-01T07:26:07;5.97;;;5.30;;
81884;SDS011;71340;55.154;30.266;2023-08-01T07:28:33;5.00;;;4.50;;
81884;SDS011;71340;55.154;30.266;2023-08-01T07:30:59;6.27;;;4.63;;
81884;SDS011;71340;55.154;30.266;2023-08-01T07:33:25;11.50;;;4.40;;
81884;SDS011;71340;55.154;30.266;2023-08-01T07:35:51;7.23;;;4.37;;
81884;SDS011;71340;55.154;30.266;2023-08-01T07:38:16;5.87;;;4.40;;
81884;SDS011;71340;55.154;30.266;2023-08-01T07:40:42;7.27;;;4.40;;
81884;SDS011;71340;55.154;30.266;2023-08-01T07:43:07;5.17;;;4.30;;
81884;SDS011;71340;55.154;30.266;2023-08-01T07:45:33;5.23;;;4.13;;
81884;SDS011;71340;55.154;30.266;2023-08-01T07:47:59;7.50;;;4.85;;
81884;SDS011;71340;55.154;30.266;2023-08-01T07:50:25;9.23;;;4.30;;
81884;SDS011;71340;55.154;30.266;2023-08-01T07:52:51;5.30;;;4.23;;
81884;SDS011;71340;55.154;30.266;2023-08-01T07:55:16;8.90;;;4.33;;
81884;SDS011;71340;55.154;30.266;2023-08-01T07:57:43;8.10;;;4.30;;
81884;SDS011;71340;55.154;30.266;2023-08-01T08:00:09;7.35;;;4.22;;
81884;SDS011;71340;55.154;30.266;2023-08-01T08:02:35;5.57;;;4.20;;
81884;SDS011;71340;55.154;30.266;2023-08-01T08:05:02;7.70;;;4.80;;
81884;SDS011;71340;55.154;30.266;2023-08-01T08:07:28;6.20;;;4.13;;
81884;SDS011;71340;55.154;30.266;2023-08-01T08:09:53;5.77;;;4.70;;
81884;SDS011;71340;55.154;30.266;2023-08-01T08:12:20;6.50;;;4.50;;
81884;SDS011;71340;55.154;30.266;2023-08-01T08:14:46;5.27;;;4.20;;
81884;SDS011;71340;55.154;30.266;2023-08-01T08:17:12;7.10;;;4.38;;
81884;SDS011;71340;55.154;30.266;2023-08-01T08:19:37;9.70;;;4.80;;
81884;SDS011;71340;55.154;30.266;2023-08-01T08:22:02;5.20;;;4.10;;
81884;SDS011;71340;55.154;30.266;2023-08-01T08:24:28;5.78;;;4.13;;
81884;SDS011;71340;55.154;30.266;2023-08-01T08:26:53;7.07;;;4.03;;
81884;SDS011;71340;55.154;30.266;2023-08-01T08:29:19;6.10;;;4.00;;
81884;SDS011;71340;55.154;30.266;2023-08-01T08:31:44;7.13;;;3.80;;
81884;SDS011;71340;55.154;30.266;2023-08-01T08:34:10;5.13;;;3.93;;
81884;SDS011;71340;55.154;30.266;2023-08-01T08:36:35;6.63;;;3.80;;
81884;SDS011;71340;55.154;30.266;2023-08-01T08:39:00;9.87;;;4.17;;
81884;SDS011;71340;55.154;30.266;2023-08-01T08:41:27;5.60;;;3.80;;
81884;SDS011;71340;55.154;30.266;2023-08-01T08:43:56;6.50;;;4.25;;
81884;SDS011;71340;55.154;30.266;2023-08-01T08:46:23;4.80;;;3.65;;
81884;SDS011;71340;55.154;30.266;2023-08-01T08:48:52;6.77;;;4.33;;
81884;SDS011;71340;55.154;30.266;2023-08-01T08:51:19;7.82;;;3.78;;
81884;SDS011;71340;55.154;30.266;2023-08-01T08:53:46;3.78;;;3.38;;
81884;SDS011;71340;55.154;30.266;2023-08-01T08:56:12;4.93;;;3.30;;
81884;SDS011;71340;55.154;30.266;2023-08-01T08:58:39;4.72;;;3.50;;
81884;SDS011;71340;55.154;30.266;2023-08-01T09:01:06;4.07;;;3.50;;
81884;SDS011;71340;55.154;30.266;2023-08-01T09:03:34;8.97;;;3.47;;
81884;SDS011;71340;55.154;30.266;2023-08-01T09:06:02;4.25;;;3.60;;
81884;SDS011;71340;55.154;30.266;2023-08-01T09:08:32;5.60;;;3.60;;
81884;SDS011;71340;55.154;30.266;2023-08-01T09:11:01;4.43;;;3.60;;
81884;SDS011;71340;55.154;30.266;2023-08-01T09:13:26;3.63;;;3.33;;
81884;SDS011;71340;55.154;30.266;2023-08-01T09:15:51;4.00;;;3.37;;
81884;SDS011;71340;55.154;30.266;2023-08-01T09:18:18;4.22;;;3.50;;
81884;SDS011;71340;55.154;30.266;2023-08-01T09:20:44;3.33;;;3.03;;
81884;SDS011;71340;55.154;30.266;2023-08-01T09:23:11;5.72;;;3.50;;
81884;SDS011;71340;55.154;30.266;2023-08-01T09:25:36;6.43;;;3.23;;
81884;SDS011;71340;55.154;30.266;2023-08-01T09:28:02;3.73;;;3.30;;
81884;SDS011;71340;55.154;30.266;2023-08-01T09:30:27;4.15;;;3.40;;
81884;SDS011;71340;55.154;30.266;2023-08-01T09:32:56;5.30;;;3.50;;
81884;SDS011;71340;55.154;30.266;2023-08-01T09:35:23;5.60;;;3.35;;
81884;SDS011;71340;55.154;30.266;2023-08-01T09:37:49;3.67;;;3.00;;
81884;SDS011;71340;55.154;30.266;2023-08-01T09:40:15;4.53;;;3.40;;
81884;SDS011;71340;55.154;30.266;2023-08-01T09:42:44;3.83;;;3.43;;
81884;SDS011;71340;55.154;30.266;2023-08-01T09:45:16;12.98;;;3.85;;
81884;SDS011;71340;55.154;30.266;2023-08-01T09:47:43;8.30;;;3.50;;
81884;SDS011;71340;55.154;30.266;2023-08-01T09:50:10;4.43;;;3.63;;
81884;SDS011;71340;55.154;30.266;2023-08-01T09:52:36;4.03;;;3.22;;
81884;SDS011;71340;55.154;30.266;2023-08-01T09:55:02;5.40;;;3.40;;
81884;SDS011;71340;55.154;30.266;2023-08-01T09:57:29;3.50;;;3.10;;
81884;SDS011;71340;55.154;30.266;2023-08-01T09:59:58;5.18;;;3.30;;
81884;SDS011;71340;55.154;30.266;2023-08-01T10:02:25;3.97;;;3.37;;
81884;SDS011;71340;55.154;30.266;2023-08-01T10:04:55;3.78;;;2.95;;
81884;SDS011;71340;55.154;30.266;2023-08-01T10:07:26;3.95;;;3.55;;
81884;SDS011;71340;55.154;30.266;2023-08-01T10:09:57;5.28;;;3.45;;
81884;SDS011;71340;55.154;30.266;2023-08-01T10:12:23;3.90;;;3.10;;
81884;SDS011;71340;55.154;30.266;2023-08-01T10:14:51;5.18;;;3.13;;
81884;SDS011;71340;55.154;30.266;2023-08-01T10:17:17;3.85;;;3.30;;
81884;SDS011;71340;55.154;30.266;2023-08-01T10:19:43;3.80;;;3.20;;
81884;SDS011;71340;55.154;30.266;2023-08-01T10:22:09;4.00;;;3.50;;
81884;SDS011;71340;55.154;30.266;2023-08-01T10:24:35;3.88;;;3.05;;
81884;SDS011;71340;55.154;30.266;2023-08-01T10:27:36;6.77;;;3.80;;
81884;SDS011;71340;55.154;30.266;2023-08-01T10:29:57;4.53;;;3.33;;
81884;SDS011;71340;55.154;30.266;2023-08-01T10:32:34;3.95;;;3.42;;
81884;SDS011;71340;55.154;30.266;2023-08-01T10:35:01;5.93;;;3.40;;
81884;SDS011;71340;55.154;30.266;2023-08-01T10:37:38;6.57;;;3.40;;
81884;SDS011;71340;55.154;30.266;2023-08-01T10:40:05;4.40;;;3.72;;
81884;SDS011;71340;55.154;30.266;2023-08-01T10:42:38;4.15;;;3.42;;
81884;SDS011;71340;55.154;30.266;2023-08-01T10:45:08;6.47;;;3.47;;
81884;SDS011;71340;55.154;30.266;2023-08-01T10:47:45;4.80;;;3.58;;
81884;SDS011;71340;55.154;30.266;2023-08-01T10:50:14;5.10;;;3.90;;
81884;SDS011;71340;55.154;30.266;2023-08-01T10:52:40;4.60;;;3.72;;
81884;SDS011;71340;55.154;30.266;2023-08-01T10:55:06;7.17;;;3.27;;
81884;SDS011;71340;55.154;30.266;2023-08-01T10:57:34;3.88;;;2.97;;
81884;SDS011;71340;55.154;30.266;2023-08-01T11:00:00;4.70;;;3.67;;
81884;SDS011;71340;55.154;30.266;2023-08-01T11:02:27;4.13;;;3.17;;
81884;SDS011;71340;55.154;30.266;2023-08-01T11:04:59;4.30;;;3.08;;
81884;SDS011;71340;55.154;30.266;2023-08-01T11:07:26;3.90;;;3.45;;
81884;SDS011;71340;55.154;30.266;2023-08-01T11:12:32;3.50;;;3.20;;
81884;SDS011;71340;55.154;30.266;2023-08-01T11:15:01;4.00;;;3.53;;
81884;SDS011;71340;55.154;30.266;2023-08-01T11:17:28;6.20;;;3.63;;
81884;SDS011;71340;55.154;30.266;2023-08-01T11:20:00;5.30;;;3.67;;
81884;SDS011;71340;55.154;30.266;2023-08-01T11:22:30;5.27;;;3.93;;
81884;SDS011;71340;55.154;30.266;2023-08-01T11:25:14;5.68;;;2.88;;
81884;SDS011;71340;55.154;30.266;2023-08-01T11:27:40;4.43;;;3.50;;
81884;SDS011;71340;55.154;30.266;2023-08-01T11:30:05;5.43;;;3.60;;
81884;SDS011;71340;55.154;30.266;2023-08-01T11:32:35;4.10;;;3.70;;
81884;SDS011;71340;55.154;30.266;2023-08-01T11:35:01;3.50;;;3.10;;
81884;SDS011;71340;55.154;30.266;2023-08-01T11:37:27;4.07;;;3.13;;
81884;SDS011;71340;55.154;30.266;2023-08-01T11:39:53;5.67;;;3.23;;
81884;SDS011;71340;55.154;30.266;2023-08-01T11:42:19;8.43;;;3.20;;
81884;SDS011;71340;55.154;30.266;2023-08-01T11:44:45;4.87;;;3.27;;
81884;SDS011;71340;55.154;30.266;2023-08-01T11:47:25;6.10;;;3.70;;
81884;SDS011;71340;55.154;30.266;2023-08-01T11:49:51;3.90;;;3.50;;
81884;SDS011;71340;55.154;30.266;2023-08-01T11:52:26;6.67;;;3.50;;
81884;SDS011;71340;55.154;30.266;2023-08-01T11:54:52;3.90;;;3.47;;
81884;SDS011;71340;55.154;30.266;2023-08-01T11:57:20;3.95;;;3.00;;
81884;SDS011;71340;55.154;30.266;2023-08-01T11:59:50;3.50;;;3.20;;
81884;SDS011;71340;55.154;30.266;2023-08-01T12:02:35;3.40;;;3.10;;
81884;SDS011;71340;55.154;30.266;2023-08-01T12:05:00;6.78;;;3.70;;
81884;SDS011;71340;55.154;30.266;2023-08-01T12:07:26;3.63;;;3.17;;
81884;SDS011;71340;55.154;30.266;2023-08-01T12:09:57;4.90;;;3.17;;
81884;SDS011;71340;55.154;30.266;2023-08-01T12:12:26;4.50;;;3.47;;
81884;SDS011;71340;55.154;30.266;2023-08-01T12:14:52;4.82;;;2.70;;
81884;SDS011;71340;55.154;30.266;2023-08-01T12:17:18;6.37;;;3.40;;
81884;SDS011;71340;55.154;30.266;2023-08-01T12:19:44;3.90;;;3.15;;
81884;SDS011;71340;55.154;30.266;2023-08-01T12:22:09;3.43;;;3.13;;
81884;SDS011;71340;55.154;30.266;2023-08-01T12:24:35;6.27;;;3.27;;
81884;SDS011;71340;55.154;30.266;2023-08-01T12:27:03;4.20;;;3.20;;
81884;SDS011;71340;55.154;30.266;2023-08-01T12:29:32;4.35;;;3.10;;
81884;SDS011;71340;55.154;30.266;2023-08-01T12:31:57;3.40;;;3.10;;
81884;SDS011;71340;55.154;30.266;2023-08-01T12:34:22;6.37;;;3.17;;
81884;SDS011;71340;55.154;30.266;2023-08-01T12:36:48;8.07;;;3.47;;
81884;SDS011;71340;55.154;30.266;2023-08-01T12:39:13;7.97;;;3.50;;
81884;SDS011;71340;55.154;30.266;2023-08-01T12:41:38;5.40;;;3.30;;
81884;SDS011;71340;55.154;30.266;2023-08-01T12:44:04;3.40;;;3.10;;
81884;SDS011;71340;55.154;30.266;2023-08-01T12:46:30;5.18;;;3.13;;
81884;SDS011;71340;55.154;30.266;2023-08-01T12:48:55;3.60;;;3.30;;
81884;SDS011;71340;55.154;30.266;2023-08-01T12:51:20;4.87;;;3.30;;
81884;SDS011;71340;55.154;30.266;2023-08-01T12:53:46;4.73;;;3.23;;
81884;SDS011;71340;55.154;30.266;2023-08-01T12:56:11;4.03;;;3.50;;
81884;SDS011;71340;55.154;30.266;2023-08-01T12:58:36;4.53;;;3.00;;
81884;SDS011;71340;55.154;30.266;2023-08-01T13:01:02;5.17;;;3.37;;
81884;SDS011;71340;55.154;30.266;2023-08-01T13:03:28;4.70;;;3.22;;
81884;SDS011;71340;55.154;30.266;2023-08-01T13:05:54;6.90;;;3.37;;
81884;SDS011;71340;55.154;30.266;2023-08-01T13:08:21;4.90;;;3.30;;
81884;SDS011;71340;55.154;30.266;2023-08-01T13:10:47;5.20;;;3.67;;
81884;SDS011;71340;55.154;30.266;2023-08-01T13:13:14;33.17;;;20.23;;
81884;SDS011;71340;55.154;30.266;2023-08-01T13:15:40;372.45;;;212.05;;
81884;SDS011;71340;55.154;30.266;2023-08-01T13:18:05;303.50;;;154.07;;
81884;SDS011;71340;55.154;30.266;2023-08-01T13:20:31;124.03;;;62.23;;
81884;SDS011;71340;55.154;30.266;2023-08-01T13:22:56;122.30;;;98.47;;
81884;SDS011;71340;55.154;30.266;2023-08-01T13:25:21;7.60;;;6.07;;
81884;SDS011;71340;55.154;30.266;2023-08-01T13:27:47;4.40;;;3.77;;
81884;SDS011;71340;55.154;30.266;2023-08-01T13:30:12;5.03;;;3.53;;
81884;SDS011;71340;55.154;30.266;2023-08-01T13:32:39;4.40;;;3.70;;
81884;SDS011;71340;55.154;30.266;2023-08-01T13:35:06;4.50;;;4.10;;
81884;SDS011;71340;55.154;30.266;2023-08-01T13:37:31;4.63;;;4.07;;
81884;SDS011;71340;55.154;30.266;2023-08-01T13:39:57;6.93;;;4.27;;
81884;SDS011;71340;55.154;30.266;2023-08-01T13:42:22;4.47;;;3.97;;
81884;SDS011;71340;55.154;30.266;2023-08-01T13:44:48;4.40;;;4.00;;
81884;SDS011;71340;55.154;30.266;2023-08-01T13:47:13;4.67;;;4.07;;
81884;SDS011;71340;55.154;30.266;2023-08-01T13:49:38;4.90;;;4.43;;
81884;SDS011;71340;55.154;30.266;2023-08-01T13:52:04;6.13;;;4.77;;
81884;SDS011;71340;55.154;30.266;2023-08-01T13:54:30;4.70;;;4.30;;
81884;SDS011;71340;55.154;30.266;2023-08-01T13:56:55;5.10;;;4.23;;
81884;SDS011;71340;55.154;30.266;2023-08-01T13:59:20;4.53;;;4.13;;
81884;SDS011;71340;55.154;30.266;2023-08-01T14:01:46;12.50;;;4.40;;
81884;SDS011;71340;55.154;30.266;2023-08-01T14:04:11;6.38;;;4.50;;
81884;SDS011;71340;55.154;30.266;2023-08-01T14:06:39;4.13;;;3.80;;
81884;SDS011;71340;55.154;30.266;2023-08-01T14:09:05;4.45;;;3.80;;
81884;SDS011;71340;55.154;30.266;2023-08-01T14:11:30;4.00;;;3.60;;
81884;SDS011;71340;55.154;30.266;2023-08-01T14:13:55;4.07;;;3.67;;
81884;SDS011;71340;55.154;30.266;2023-08-01T14:16:22;6.00;;;3.72;;
81884;SDS011;71340;55.154;30.266;2023-08-01T14:18:47;3.73;;;3.43;;
81884;SDS011;71340;55.154;30.266;2023-08-01T14:21:13;6.47;;;4.20;;
81884;SDS011;71340;55.154;30.266;2023-08-01T14:23:38;4.73;;;4.33;;
81884;SDS011;71340;55.154;30.266;2023-08-01T14:26:05;4.37;;;3.97;;
81884;SDS011;71340;55.154;30.266;2023-08-01T14:28:31;5.88;;;3.95;;
81884;SDS011;71340;55.154;30.266;2023-08-01T14:30:59;4.93;;;3.50;;